sensor_id;sensor_type;location;lat;lon;timestamp;temperature;humidity
24158;DHT22;12316;50.904;4.200;2023-12-29T00:00:45;11.20;99.90
24158;DHT22;12316;50.904;4.200;2023-12-29T00:03:11;11.30;99.90
24158;DHT22;12316;50.904;4.200;2023-12-29T00:05:37;11.10;99.90
24158;DHT22;12316;50.904;4.200;2023-12-29T00:08:03;11.10;99.90
24158;DHT22;12316;50.904;4.200;2023-12-29T00:10:28;11.00;99.90
24158;DHT22;12316;50.904;4.200;2023-12-29T00:12:54;11.00;99.90
24158;DHT22;12316;50.904;4.200;2023-12-29T00:15:20;11.10;99.90
24158;DHT22;12316;50.904;4.200;2023-12-29T00:17:45;11.10;99.90
24158;DHT22;12316;50.904;4.200;2023-12-29T00:20:12;11.20;99.90
24158;DHT22;12316;50.904;4.200;2023-12-29T00:22:37;11.20;99.90
24158;DHT22;12316;50.904;4.200;2023-12-29T00:25:03;11.20;99.90
24158;DHT22;12316;50.904;4.200;2023-12-29T00:27:30;11.10;99.90
24158;DHT22;12316;50.904;4.200;2023-12-29T00:29:56;11.10;99.90
24158;DHT22;12316;50.904;4.200;2023-12-29T00:32:22;11.10;99.90
24158;DHT22;12316;50.904;4.200;2023-12-29T00:34:47;11.10;99.90
24158;DHT22;12316;50.904;4.200;2023-12-29T00:37:13;11.20;99.90
24158;DHT22;12316;50.904;4.200;2023-12-29T00:39:38;11.10;99.90
24158;DHT22;12316;50.904;4.200;2023-12-29T00:42:05;11.10;99.90
24158;DHT22;12316;50.904;4.200;2023-12-29T00:44:32;11.10;99.90
24158;DHT22;12316;50.904;4.200;2023-12-29T00:46:59;11.10;99.90
24158;DHT22;12316;50.904;4.200;2023-12-29T00:49:24;11.00;99.90
24158;DHT22;12316;50.904;4.200;2023-12-29T00:51:50;11.00;99.90
24158;DHT22;12316;50.904;4.200;2023-12-29T00:54:16;11.10;99.90
24158;DHT22;12316;50.904;4.200;2023-12-29T00:56:41;11.10;99.90
24158;DHT22;12316;50.904;4.200;2023-12-29T00:59:07;11.20;99.90
24158;DHT22;12316;50.904;4.200;2023-12-29T01:01:34;11.20;99.90
24158;DHT22;12316;50.904;4.200;2023-12-29T01:04:00;11.10;99.90
24158;DHT22;12316;50.904;4.200;2023-12-29T01:06:26;11.10;99.90
24158;DHT22;12316;50.904;4.200;2023-12-29T01:08:52;11.10;99.90
24158;DHT22;12316;50.904;4.200;2023-12-29T01:11:17;11.10;99.90
24158;DHT22;12316;50.904;4.200;2023-12-29T01:13:43;11.10;99.90
24158;DHT22;12316;50.904;4.200;2023-12-29T01:16:09;11.10;99.90
24158;DHT22;12316;50.904;4.200;2023-12-29T01:18:34;11.20;99.90
24158;DHT22;12316;50.904;4.200;2023-12-29T01:21:00;11.20;99.90
24158;DHT22;12316;50.904;4.200;2023-12-29T01:23:25;11.10;99.90
24158;DHT22;12316;50.904;4.200;2023-12-29T01:25:51;11.20;99.90
24158;DHT22;12316;50.904;4.200;2023-12-29T01:28:17;11.10;99.90
24158;DHT22;12316;50.904;4.200;2023-12-29T01:30:42;11.10;99.90
24158;DHT22;12316;50.904;4.200;2023-12-29T01:33:08;11.20;99.90
24158;DHT22;12316;50.904;4.200;2023-12-29T01:35:34;11.10;99.90
24158;DHT22;12316;50.904;4.200;2023-12-29T01:37:59;11.20;99.90
24158;DHT22;12316;50.904;4.200;2023-12-29T01:40:26;11.10;99.90
24158;DHT22;12316;50.904;4.200;2023-12-29T01:42:52;11.00;99.90
24158;DHT22;12316;50.904;4.200;2023-12-29T01:45:22;11.00;99.90
24158;DHT22;12316;50.904;4.200;2023-12-29T01:47:49;11.10;99.90
24158;DHT22;12316;50.904;4.200;2023-12-29T01:50:16;11.10;99.90
24158;DHT22;12316;50.904;4.200;2023-12-29T01:52:43;11.10;99.90
24158;DHT22;12316;50.904;4.200;2023-12-29T01:55:11;11.00;99.90
24158;DHT22;12316;50.904;4.200;2023-12-29T01:57:38;11.10;99.90
24158;DHT22;12316;50.904;4.200;2023-12-29T02:00:05;11.10;99.90
24158;DHT22;12316;50.904;4.200;2023-12-29T02:02:32;11.10;99.90
24158;DHT22;12316;50.904;4.200;2023-12-29T02:04:58;11.00;99.90
24158;DHT22;12316;50.904;4.200;2023-12-29T02:07:27;11.00;99.90
24158;DHT22;12316;50.904;4.200;2023-12-29T02:09:59;10.90;99.90
24158;DHT22;12316;50.904;4.200;2023-12-29T02:12:26;11.00;99.90
24158;DHT22;12316;50.904;4.200;2023-12-29T02:14:52;11.00;99.90
24158;DHT22;12316;50.904;4.200;2023-12-29T02:17:36;11.00;99.90
24158;DHT22;12316;50.904;4.200;2023-12-29T02:20:04;10.90;99.90
24158;DHT22;12316;50.904;4.200;2023-12-29T02:22:30;10.90;99.90
24158;DHT22;12316;50.904;4.200;2023-12-29T02:24:56;10.90;99.90
24158;DHT22;12316;50.904;4.200;2023-12-29T02:27:33;11.00;99.90
24158;DHT22;12316;50.904;4.200;2023-12-29T02:32:59;11.00;99.90
24158;DHT22;12316;50.904;4.200;2023-12-29T02:35:28;11.00;99.90
24158;DHT22;12316;50.904;4.200;2023-12-29T02:37:56;11.00;99.90
24158;DHT22;12316;50.904;4.200;2023-12-29T02:40:22;11.00;99.90
24158;DHT22;12316;50.904;4.200;2023-12-29T02:42:49;11.00;99.90
24158;DHT22;12316;50.904;4.200;2023-12-29T02:45:16;11.00;99.90
24158;DHT22;12316;50.904;4.200;2023-12-29T02:47:43;11.00;99.90
24158;DHT22;12316;50.904;4.200;2023-12-29T02:50:09;11.00;99.90
24158;DHT22;12316;50.904;4.200;2023-12-29T02:52:35;11.00;99.90
24158;DHT22;12316;50.904;4.200;2023-12-29T02:55:00;10.80;99.90
24158;DHT22;12316;50.904;4.200;2023-12-29T02:57:26;10.90;99.90
24158;DHT22;12316;50.904;4.200;2023-12-29T02:59:52;11.00;99.90
24158;DHT22;12316;50.904;4.200;2023-12-29T03:02:18;11.00;99.90
24158;DHT22;12316;50.904;4.200;2023-12-29T03:04:44;10.90;99.90
24158;DHT22;12316;50.904;4.200;2023-12-29T03:07:09;10.90;99.90
24158;DHT22;12316;50.904;4.200;2023-12-29T03:09:35;10.90;99.90
24158;DHT22;12316;50.904;4.200;2023-12-29T03:12:01;10.80;99.90
24158;DHT22;12316;50.904;4.200;2023-12-29T03:14:26;10.80;99.90
24158;DHT22;12316;50.904;4.200;2023-12-29T03:16:52;10.90;99.90
24158;DHT22;12316;50.904;4.200;2023-12-29T03:19:18;10.80;99.90
24158;DHT22;12316;50.904;4.200;2023-12-29T03:21:43;10.80;99.90
24158;DHT22;12316;50.904;4.200;2023-12-29T03:24:09;10.80;99.90
24158;DHT22;12316;50.904;4.200;2023-12-29T03:26:35;10.70;99.90
24158;DHT22;12316;50.904;4.200;2023-12-29T03:29:00;10.70;99.90
24158;DHT22;12316;50.904;4.200;2023-12-29T03:31:26;10.70;99.90
24158;DHT22;12316;50.904;4.200;2023-12-29T03:33:52;10.70;99.90
24158;DHT22;12316;50.904;4.200;2023-12-29T03:36:17;10.70;99.90
24158;DHT22;12316;50.904;4.200;2023-12-29T03:38:43;10.80;99.90
24158;DHT22;12316;50.904;4.200;2023-12-29T03:41:09;10.80;99.90
24158;DHT22;12316;50.904;4.200;2023-12-29T03:43:35;10.90;99.90
24158;DHT22;12316;50.904;4.200;2023-12-29T03:46:00;10.80;99.90
24158;DHT22;12316;50.904;4.200;2023-12-29T03:48:26;10.80;99.90
24158;DHT22;12316;50.904;4.200;2023-12-29T03:50:52;10.80;99.90
24158;DHT22;12316;50.904;4.200;2023-12-29T03:53:17;10.70;99.90
24158;DHT22;12316;50.904;4.200;2023-12-29T03:55:44;10.70;99.90
24158;DHT22;12316;50.904;4.200;2023-12-29T03:58:10;10.70;99.90
24158;DHT22;12316;50.904;4.200;2023-12-29T04:00:36;10.60;99.90
24158;DHT22;12316;50.904;4.200;2023-12-29T04:03:02;10.70;99.90
24158;DHT22;12316;50.904;4.200;2023-12-29T04:05:28;10.80;99.90
24158;DHT22;12316;50.904;4.200;2023-12-29T04:07:53;10.80;99.90
24158;DHT22;12316;50.904;4.200;2023-12-29T04:10:19;10.90;99.90
24158;DHT22;12316;50.904;4.200;2023-12-29T04:12:44;11.00;99.90
24158;DHT22;12316;50.904;4.200;2023-12-29T04:15:11;10.80;99.90
24158;DHT22;12316;50.904;4.200;2023-12-29T04:17:37;10.70;99.90
24158;DHT22;12316;50.904;4.200;2023-12-29T04:20:03;10.70;99.90
24158;DHT22;12316;50.904;4.200;2023-12-29T04:22:28;10.60;99.90
24158;DHT22;12316;50.904;4.200;2023-12-29T04:24:54;10.60;99.90
24158;DHT22;12316;50.904;4.200;2023-12-29T04:27:21;10.60;99.90
24158;DHT22;12316;50.904;4.200;2023-12-29T04:29:48;10.60;99.90
24158;DHT22;12316;50.904;4.200;2023-12-29T04:32:14;10.60;99.90
24158;DHT22;12316;50.904;4.200;2023-12-29T04:34:40;10.70;99.90
24158;DHT22;12316;50.904;4.200;2023-12-29T04:37:05;10.70;99.90
24158;DHT22;12316;50.904;4.200;2023-12-29T04:39:31;10.60;99.90
24158;DHT22;12316;50.904;4.200;2023-12-29T04:41:57;10.70;99.90
24158;DHT22;12316;50.904;4.200;2023-12-29T04:44:22;10.80;99.90
24158;DHT22;12316;50.904;4.200;2023-12-29T04:46:48;10.90;99.90
24158;DHT22;12316;50.904;4.200;2023-12-29T04:49:13;10.80;99.90
24158;DHT22;12316;50.904;4.200;2023-12-29T04:51:39;10.80;99.90
24158;DHT22;12316;50.904;4.200;2023-12-29T04:54:05;10.80;99.90
24158;DHT22;12316;50.904;4.200;2023-12-29T04:56:30;10.80;99.90
24158;DHT22;12316;50.904;4.200;2023-12-29T04:58:56;10.90;99.90
24158;DHT22;12316;50.904;4.200;2023-12-29T05:01:22;10.90;99.90
24158;DHT22;12316;50.904;4.200;2023-12-29T05:03:47;10.80;99.90
24158;DHT22;12316;50.904;4.200;2023-12-29T05:06:13;10.80;99.90
24158;DHT22;12316;50.904;4.200;2023-12-29T05:08:39;10.80;99.90
24158;DHT22;12316;50.904;4.200;2023-12-29T05:11:04;10.80;99.90
24158;DHT22;12316;50.904;4.200;2023-12-29T05:13:30;10.80;99.90
24158;DHT22;12316;50.904;4.200;2023-12-29T05:15:55;10.80;99.90
24158;DHT22;12316;50.904;4.200;2023-12-29T05:18:21;10.90;99.90
24158;DHT22;12316;50.904;4.200;2023-12-29T05:20:47;10.80;99.90
24158;DHT22;12316;50.904;4.200;2023-12-29T05:23:12;10.80;99.90
24158;DHT22;12316;50.904;4.200;2023-12-29T05:25:39;10.90;99.90
24158;DHT22;12316;50.904;4.200;2023-12-29T05:28:05;10.70;99.90
24158;DHT22;12316;50.904;4.200;2023-12-29T05:30:30;10.70;99.90
24158;DHT22;12316;50.904;4.200;2023-12-29T05:32:57;10.70;99.90
24158;DHT22;12316;50.904;4.200;2023-12-29T05:35:23;10.60;99.90
24158;DHT22;12316;50.904;4.200;2023-12-29T05:37:49;10.60;99.90
24158;DHT22;12316;50.904;4.200;2023-12-29T05:40:15;10.60;99.90
24158;DHT22;12316;50.904;4.200;2023-12-29T05:42:41;10.70;99.90
24158;DHT22;12316;50.904;4.200;2023-12-29T05:45:07;10.60;99.90
24158;DHT22;12316;50.904;4.200;2023-12-29T05:47:32;10.60;99.90
24158;DHT22;12316;50.904;4.200;2023-12-29T05:49:58;10.70;99.90
24158;DHT22;12316;50.904;4.200;2023-12-29T05:52:24;10.70;99.90
24158;DHT22;12316;50.904;4.200;2023-12-29T05:54:50;10.70;99.90
24158;DHT22;12316;50.904;4.200;2023-12-29T05:57:15;10.80;99.90
24158;DHT22;12316;50.904;4.200;2023-12-29T05:59:41;10.70;99.90
24158;DHT22;12316;50.904;4.200;2023-12-29T06:02:07;10.50;99.90
24158;DHT22;12316;50.904;4.200;2023-12-29T06:04:32;10.50;99.90
24158;DHT22;12316;50.904;4.200;2023-12-29T06:06:58;10.40;99.90
24158;DHT22;12316;50.904;4.200;2023-12-29T06:09:24;10.30;99.90
24158;DHT22;12316;50.904;4.200;2023-12-29T06:11:49;10.30;99.90
24158;DHT22;12316;50.904;4.200;2023-12-29T06:14:15;10.30;99.90
24158;DHT22;12316;50.904;4.200;2023-12-29T06:16:41;10.20;99.90
24158;DHT22;12316;50.904;4.200;2023-12-29T06:19:08;10.20;99.90
24158;DHT22;12316;50.904;4.200;2023-12-29T06:21:33;10.20;99.90
24158;DHT22;12316;50.904;4.200;2023-12-29T06:23:59;10.20;99.90
24158;DHT22;12316;50.904;4.200;2023-12-29T06:26:24;10.10;99.90
24158;DHT22;12316;50.904;4.200;2023-12-29T06:28:50;10.10;99.90
24158;DHT22;12316;50.904;4.200;2023-12-29T06:31:17;10.00;99.90
24158;DHT22;12316;50.904;4.200;2023-12-29T06:33:43;10.00;99.90
24158;DHT22;12316;50.904;4.200;2023-12-29T06:36:10;9.90;99.90
24158;DHT22;12316;50.904;4.200;2023-12-29T06:38:35;10.00;99.90
24158;DHT22;12316;50.904;4.200;2023-12-29T06:41:04;10.00;99.90
24158;DHT22;12316;50.904;4.200;2023-12-29T06:43:30;10.00;99.90
24158;DHT22;12316;50.904;4.200;2023-12-29T06:45:57;10.00;99.90
24158;DHT22;12316;50.904;4.200;2023-12-29T06:48:22;9.90;99.90
24158;DHT22;12316;50.904;4.200;2023-12-29T06:50:48;9.90;99.90
24158;DHT22;12316;50.904;4.200;2023-12-29T06:53:14;10.00;99.90
24158;DHT22;12316;50.904;4.200;2023-12-29T06:55:40;9.90;99.90
24158;DHT22;12316;50.904;4.200;2023-12-29T06:58:05;10.00;99.90
24158;DHT22;12316;50.904;4.200;2023-12-29T07:00:31;10.00;99.90
24158;DHT22;12316;50.904;4.200;2023-12-29T07:02:57;10.00;99.90
24158;DHT22;12316;50.904;4.200;2023-12-29T07:05:22;10.00;99.90
24158;DHT22;12316;50.904;4.200;2023-12-29T07:07:48;10.00;99.90
24158;DHT22;12316;50.904;4.200;2023-12-29T07:10:14;9.90;99.90
24158;DHT22;12316;50.904;4.200;2023-12-29T07:12:42;10.00;99.90
24158;DHT22;12316;50.904;4.200;2023-12-29T07:15:08;10.00;99.90
24158;DHT22;12316;50.904;4.200;2023-12-29T07:17:34;10.00;99.90
24158;DHT22;12316;50.904;4.200;2023-12-29T07:20:00;10.00;99.90
24158;DHT22;12316;50.904;4.200;2023-12-29T07:22:26;10.00;99.90
24158;DHT22;12316;50.904;4.200;2023-12-29T07:24:51;9.80;99.90
24158;DHT22;12316;50.904;4.200;2023-12-29T07:27:17;10.00;99.90
24158;DHT22;12316;50.904;4.200;2023-12-29T07:29:43;10.10;99.90
24158;DHT22;12316;50.904;4.200;2023-12-29T07:32:08;10.10;99.90
24158;DHT22;12316;50.904;4.200;2023-12-29T07:34:34;10.10;99.90
24158;DHT22;12316;50.904;4.200;2023-12-29T07:37:00;10.20;99.90
24158;DHT22;12316;50.904;4.200;2023-12-29T07:39:26;10.20;99.90
24158;DHT22;12316;50.904;4.200;2023-12-29T07:41:51;10.20;99.90
24158;DHT22;12316;50.904;4.200;2023-12-29T07:44:17;10.20;99.90
24158;DHT22;12316;50.904;4.200;2023-12-29T07:46:43;10.20;99.90
24158;DHT22;12316;50.904;4.200;2023-12-29T07:49:12;10.30;99.90
24158;DHT22;12316;50.904;4.200;2023-12-29T07:51:41;10.40;99.90
24158;DHT22;12316;50.904;4.200;2023-12-29T07:54:08;10.30;99.90
24158;DHT22;12316;50.904;4.200;2023-12-29T07:56:33;10.30;99.90
24158;DHT22;12316;50.904;4.200;2023-12-29T07:58:59;10.20;99.90
24158;DHT22;12316;50.904;4.200;2023-12-29T08:01:25;10.30;99.90
24158;DHT22;12316;50.904;4.200;2023-12-29T08:03:52;10.40;99.90
24158;DHT22;12316;50.904;4.200;2023-12-29T08:06:18;10.20;99.90
24158;DHT22;12316;50.904;4.200;2023-12-29T08:08:43;10.20;99.90
24158;DHT22;12316;50.904;4.200;2023-12-29T08:11:16;10.20;99.90
24158;DHT22;12316;50.904;4.200;2023-12-29T08:13:46;10.40;99.90
24158;DHT22;12316;50.904;4.200;2023-12-29T08:16:12;10.30;99.90
24158;DHT22;12316;50.904;4.200;2023-12-29T08:18:38;10.30;99.90
24158;DHT22;12316;50.904;4.200;2023-12-29T08:21:04;10.40;99.90
24158;DHT22;12316;50.904;4.200;2023-12-29T08:23:29;10.30;99.90
24158;DHT22;12316;50.904;4.200;2023-12-29T08:25:58;10.30;99.90
24158;DHT22;12316;50.904;4.200;2023-12-29T08:28:24;10.30;99.90
24158;DHT22;12316;50.904;4.200;2023-12-29T08:30:50;10.40;99.90
24158;DHT22;12316;50.904;4.200;2023-12-29T08:33:16;10.50;99.90
24158;DHT22;12316;50.904;4.200;2023-12-29T08:35:43;10.40;99.90
24158;DHT22;12316;50.904;4.200;2023-12-29T08:38:11;10.50;99.90
24158;DHT22;12316;50.904;4.200;2023-12-29T08:40:37;10.50;99.90
24158;DHT22;12316;50.904;4.200;2023-12-29T08:43:03;10.60;99.90
24158;DHT22;12316;50.904;4.200;2023-12-29T08:45:29;10.60;99.90
24158;DHT22;12316;50.904;4.200;2023-12-29T08:47:54;10.50;99.90
24158;DHT22;12316;50.904;4.200;2023-12-29T08:50:20;10.40;99.90
24158;DHT22;12316;50.904;4.200;2023-12-29T08:52:47;10.40;99.90
24158;DHT22;12316;50.904;4.200;2023-12-29T08:55:12;10.50;99.90
24158;DHT22;12316;50.904;4.200;2023-12-29T08:57:38;10.40;99.90
24158;DHT22;12316;50.904;4.200;2023-12-29T09:00:04;10.50;99.90
24158;DHT22;12316;50.904;4.200;2023-12-29T09:02:30;10.60;99.90
24158;DHT22;12316;50.904;4.200;2023-12-29T09:04:56;10.60;99.90
24158;DHT22;12316;50.904;4.200;2023-12-29T09:07:22;10.70;99.90
24158;DHT22;12316;50.904;4.200;2023-12-29T09:09:48;10.70;99.90
24158;DHT22;12316;50.904;4.200;2023-12-29T09:12:13;10.70;99.90
24158;DHT22;12316;50.904;4.200;2023-12-29T09:14:39;10.60;99.90
24158;DHT22;12316;50.904;4.200;2023-12-29T09:17:05;10.60;99.90
24158;DHT22;12316;50.904;4.200;2023-12-29T09:19:31;10.80;99.90
24158;DHT22;12316;50.904;4.200;2023-12-29T09:21:56;10.80;99.90
24158;DHT22;12316;50.904;4.200;2023-12-29T09:24:22;10.80;99.90
24158;DHT22;12316;50.904;4.200;2023-12-29T09:26:48;10.70;99.90
24158;DHT22;12316;50.904;4.200;2023-12-29T09:29:13;10.70;99.90
24158;DHT22;12316;50.904;4.200;2023-12-29T09:31:39;10.70;99.90
24158;DHT22;12316;50.904;4.200;2023-12-29T09:34:05;10.90;99.90
24158;DHT22;12316;50.904;4.200;2023-12-29T09:36:30;10.90;99.90
24158;DHT22;12316;50.904;4.200;2023-12-29T09:38:56;10.80;99.90
24158;DHT22;12316;50.904;4.200;2023-12-29T09:41:24;10.80;99.90
24158;DHT22;12316;50.904;4.200;2023-12-29T09:43:51;10.80;99.90
24158;DHT22;12316;50.904;4.200;2023-12-29T09:46:17;10.80;99.90
24158;DHT22;12316;50.904;4.200;2023-12-29T09:48:45;10.70;99.90
24158;DHT22;12316;50.904;4.200;2023-12-29T09:51:13;10.70;99.90
24158;DHT22;12316;50.904;4.200;2023-12-29T09:53:40;10.90;99.90
24158;DHT22;12316;50.904;4.200;2023-12-29T09:56:08;11.00;99.90
24158;DHT22;12316;50.904;4.200;2023-12-29T09:58:35;11.00;99.90
24158;DHT22;12316;50.904;4.200;2023-12-29T10:01:04;11.10;99.90
24158;DHT22;12316;50.904;4.200;2023-12-29T10:03:33;11.10;99.90
24158;DHT22;12316;50.904;4.200;2023-12-29T10:06:00;11.10;99.90
24158;DHT22;12316;50.904;4.200;2023-12-29T10:08:28;11.10;99.90
24158;DHT22;12316;50.904;4.200;2023-12-29T10:10:58;11.00;99.90
24158;DHT22;12316;50.904;4.200;2023-12-29T10:13:25;11.00;99.90
24158;DHT22;12316;50.904;4.200;2023-12-29T10:18:39;11.00;99.90
24158;DHT22;12316;50.904;4.200;2023-12-29T10:21:56;11.00;99.90
24158;DHT22;12316;50.904;4.200;2023-12-29T10:24:22;11.00;99.90
24158;DHT22;12316;50.904;4.200;2023-12-29T10:26:49;11.00;99.90
24158;DHT22;12316;50.904;4.200;2023-12-29T10:29:15;11.10;99.90
24158;DHT22;12316;50.904;4.200;2023-12-29T10:31:41;11.10;99.90
24158;DHT22;12316;50.904;4.200;2023-12-29T10:34:25;11.20;99.90
24158;DHT22;12316;50.904;4.200;2023-12-29T10:36:58;11.50;99.90
24158;DHT22;12316;50.904;4.200;2023-12-29T10:39:25;11.50;99.90
24158;DHT22;12316;50.904;4.200;2023-12-29T10:42:03;11.50;99.90
24158;DHT22;12316;50.904;4.200;2023-12-29T10:44:31;11.40;99.90
24158;DHT22;12316;50.904;4.200;2023-12-29T10:46:56;11.60;99.90
24158;DHT22;12316;50.904;4.200;2023-12-29T10:49:22;11.70;99.90
24158;DHT22;12316;50.904;4.200;2023-12-29T10:51:48;11.70;99.90
24158;DHT22;12316;50.904;4.200;2023-12-29T10:54:20;11.70;99.90
24158;DHT22;12316;50.904;4.200;2023-12-29T10:57:12;11.60;99.90
24158;DHT22;12316;50.904;4.200;2023-12-29T10:59:38;11.60;99.90
24158;DHT22;12316;50.904;4.200;2023-12-29T11:02:04;11.50;99.90
24158;DHT22;12316;50.904;4.200;2023-12-29T11:04:30;11.60;99.90
24158;DHT22;12316;50.904;4.200;2023-12-29T11:06:56;11.60;99.90
24158;DHT22;12316;50.904;4.200;2023-12-29T11:09:33;11.60;99.90
24158;DHT22;12316;50.904;4.200;2023-12-29T11:12:04;11.60;99.90
24158;DHT22;12316;50.904;4.200;2023-12-29T11:14:30;11.70;99.90
24158;DHT22;12316;50.904;4.200;2023-12-29T11:16:57;11.50;99.90
24158;DHT22;12316;50.904;4.200;2023-12-29T11:19:24;11.60;99.90
24158;DHT22;12316;50.904;4.200;2023-12-29T11:21:52;11.50;99.90
24158;DHT22;12316;50.904;4.200;2023-12-29T11:24:22;11.60;99.90
24158;DHT22;12316;50.904;4.200;2023-12-29T11:26:51;11.70;99.90
24158;DHT22;12316;50.904;4.200;2023-12-29T11:29:18;11.80;99.90
24158;DHT22;12316;50.904;4.200;2023-12-29T11:31:45;11.70;99.90
24158;DHT22;12316;50.904;4.200;2023-12-29T11:34:25;11.60;99.90
24158;DHT22;12316;50.904;4.200;2023-12-29T11:36:59;11.50;99.90
24158;DHT22;12316;50.904;4.200;2023-12-29T11:39:42;11.60;99.90
24158;DHT22;12316;50.904;4.200;2023-12-29T11:42:33;11.70;99.90
24158;DHT22;12316;50.904;4.200;2023-12-29T11:45:30;11.70;99.90
24158;DHT22;12316;50.904;4.200;2023-12-29T11:47:59;11.80;99.90
24158;DHT22;12316;50.904;4.200;2023-12-29T11:50:45;11.60;99.90
24158;DHT22;12316;50.904;4.200;2023-12-29T11:53:31;11.50;99.90
24158;DHT22;12316;50.904;4.200;2023-12-29T11:55:56;11.50;99.90
24158;DHT22;12316;50.904;4.200;2023-12-29T11:58:26;11.50;99.90
24158;DHT22;12316;50.904;4.200;2023-12-29T12:00:53;11.40;99.90
24158;DHT22;12316;50.904;4.200;2023-12-29T12:03:28;11.40;99.90
24158;DHT22;12316;50.904;4.200;2023-12-29T12:05:57;11.40;99.90
24158;DHT22;12316;50.904;4.200;2023-12-29T12:08:27;11.30;99.90
24158;DHT22;12316;50.904;4.200;2023-12-29T12:10:54;11.30;99.90
24158;DHT22;12316;50.904;4.200;2023-12-29T12:13:43;11.40;99.90
24158;DHT22;12316;50.904;4.200;2023-12-29T12:16:10;11.40;99.90
24158;DHT22;12316;50.904;4.200;2023-12-29T12:18:55;11.40;99.90
24158;DHT22;12316;50.904;4.200;2023-12-29T12:21:23;11.20;99.90
24158;DHT22;12316;50.904;4.200;2023-12-29T12:23:50;11.00;99.90
24158;DHT22;12316;50.904;4.200;2023-12-29T12:26:17;11.00;99.90
24158;DHT22;12316;50.904;4.200;2023-12-29T12:28:43;10.90;99.90
24158;DHT22;12316;50.904;4.200;2023-12-29T12:31:12;11.00;99.90
24158;DHT22;12316;50.904;4.200;2023-12-29T12:33:38;11.10;99.90
24158;DHT22;12316;50.904;4.200;2023-12-29T12:36:04;11.10;99.90
24158;DHT22;12316;50.904;4.200;2023-12-29T12:38:30;11.00;99.90
24158;DHT22;12316;50.904;4.200;2023-12-29T12:41:09;10.90;99.90
24158;DHT22;12316;50.904;4.200;2023-12-29T12:43:38;10.90;99.90
24158;DHT22;12316;50.904;4.200;2023-12-29T12:46:09;10.90;99.90
24158;DHT22;12316;50.904;4.200;2023-12-29T12:48:44;10.80;99.90
24158;DHT22;12316;50.904;4.200;2023-12-29T12:51:11;10.80;99.90
24158;DHT22;12316;50.904;4.200;2023-12-29T12:53:41;10.90;99.90
24158;DHT22;12316;50.904;4.200;2023-12-29T12:56:07;11.00;99.90
24158;DHT22;12316;50.904;4.200;2023-12-29T12:58:33;11.10;99.90
24158;DHT22;12316;50.904;4.200;2023-12-29T13:01:00;11.10;99.90
24158;DHT22;12316;50.904;4.200;2023-12-29T13:03:26;11.20;99.90
24158;DHT22;12316;50.904;4.200;2023-12-29T13:05:53;11.20;99.90
24158;DHT22;12316;50.904;4.200;2023-12-29T13:08:19;11.10;99.90
24158;DHT22;12316;50.904;4.200;2023-12-29T13:10:45;11.10;99.90
24158;DHT22;12316;50.904;4.200;2023-12-29T13:13:11;11.10;99.90
24158;DHT22;12316;50.904;4.200;2023-12-29T13:15:49;11.20;99.90
24158;DHT22;12316;50.904;4.200;2023-12-29T13:18:16;11.20;99.90
24158;DHT22;12316;50.904;4.200;2023-12-29T13:20:48;11.30;99.90
24158;DHT22;12316;50.904;4.200;2023-12-29T13:23:14;11.40;99.90
24158;DHT22;12316;50.904;4.200;2023-12-29T13:25:42;11.30;99.90
24158;DHT22;12316;50.904;4.200;2023-12-29T13:28:08;11.40;99.90
24158;DHT22;12316;50.904;4.200;2023-12-29T13:30:36;11.40;99.90
24158;DHT22;12316;50.904;4.200;2023-12-29T13:33:14;11.40;99.90
24158;DHT22;12316;50.904;4.200;2023-12-29T13:35:54;11.50;99.90
24158;DHT22;12316;50.904;4.200;2023-12-29T13:38:27;11.50;99.90
24158;DHT22;12316;50.904;4.200;2023-12-29T13:40:59;11.50;99.90
24158;DHT22;12316;50.904;4.200;2023-12-29T13:43:29;11.50;99.90
24158;DHT22;12316;50.904;4.200;2023-12-29T13:45:56;11.50;99.90
24158;DHT22;12316;50.904;4.200;2023-12-29T13:48:22;11.50;99.90
24158;DHT22;12316;50.904;4.200;2023-12-29T13:50:49;11.50;99.90
24158;DHT22;12316;50.904;4.200;2023-12-29T13:53:21;11.40;99.90
24158;DHT22;12316;50.904;4.200;2023-12-29T13:55:48;11.40;99.90
24158;DHT22;12316;50.904;4.200;2023-12-29T13:58:15;11.30;99.90
24158;DHT22;12316;50.904;4.200;2023-12-29T14:00:42;11.40;99.90
24158;DHT22;12316;50.904;4.200;2023-12-29T14:03:22;11.30;99.90
24158;DHT22;12316;50.904;4.200;2023-12-29T14:05:55;11.30;99.90
24158;DHT22;12316;50.904;4.200;2023-12-29T14:08:44;11.40;99.90
24158;DHT22;12316;50.904;4.200;2023-12-29T14:11:10;11.50;99.90
24158;DHT22;12316;50.904;4.200;2023-12-29T14:13:41;11.40;99.90
24158;DHT22;12316;50.904;4.200;2023-12-29T14:16:07;11.40;99.90
24158;DHT22;12316;50.904;4.200;2023-12-29T14:21:29;11.50;99.90
24158;DHT22;12316;50.904;4.200;2023-12-29T14:26:23;11.50;99.90
24158;DHT22;12316;50.904;4.200;2023-12-29T14:29:07;11.40;99.90
24158;DHT22;12316;50.904;4.200;2023-12-29T14:31:35;11.30;99.90
24158;DHT22;12316;50.904;4.200;2023-12-29T14:34:01;11.50;99.90
24158;DHT22;12316;50.904;4.200;2023-12-29T14:36:27;11.40;99.90
24158;DHT22;12316;50.904;4.200;2023-12-29T14:38:53;11.50;99.90
24158;DHT22;12316;50.904;4.200;2023-12-29T14:41:18;11.60;99.90
24158;DHT22;12316;50.904;4.200;2023-12-29T14:43:44;11.70;99.90
24158;DHT22;12316;50.904;4.200;2023-12-29T14:46:10;11.70;99.90
24158;DHT22;12316;50.904;4.200;2023-12-29T14:48:35;11.80;99.90
24158;DHT22;12316;50.904;4.200;2023-12-29T14:51:01;11.80;99.90
24158;DHT22;12316;50.904;4.200;2023-12-29T14:53:28;11.80;99.90
24158;DHT22;12316;50.904;4.200;2023-12-29T14:55:53;11.90;99.90
24158;DHT22;12316;50.904;4.200;2023-12-29T14:58:19;11.90;99.90
24158;DHT22;12316;50.904;4.200;2023-12-29T15:00:45;11.80;99.90
24158;DHT22;12316;50.904;4.200;2023-12-29T15:03:12;11.70;99.90
24158;DHT22;12316;50.904;4.200;2023-12-29T15:05:40;11.60;99.90
24158;DHT22;12316;50.904;4.200;2023-12-29T15:08:06;11.50;99.90
24158;DHT22;12316;50.904;4.200;2023-12-29T15:10:32;11.30;99.90
24158;DHT22;12316;50.904;4.200;2023-12-29T15:12:59;11.40;99.90
24158;DHT22;12316;50.904;4.200;2023-12-29T15:15:24;11.50;99.90
24158;DHT22;12316;50.904;4.200;2023-12-29T15:17:50;11.50;99.90
24158;DHT22;12316;50.904;4.200;2023-12-29T15:20:16;11.60;99.90
24158;DHT22;12316;50.904;4.200;2023-12-29T15:22:41;11.50;99.90
24158;DHT22;12316;50.904;4.200;2023-12-29T15:25:08;11.50;99.90
24158;DHT22;12316;50.904;4.200;2023-12-29T15:27:34;11.50;99.90
24158;DHT22;12316;50.904;4.200;2023-12-29T15:30:00;11.50;99.90
24158;DHT22;12316;50.904;4.200;2023-12-29T15:32:26;11.50;99.90
24158;DHT22;12316;50.904;4.200;2023-12-29T15:34:52;11.60;99.90
24158;DHT22;12316;50.904;4.200;2023-12-29T15:37:17;11.50;99.90
24158;DHT22;12316;50.904;4.200;2023-12-29T15:39:45;11.50;99.90
24158;DHT22;12316;50.904;4.200;2023-12-29T15:42:10;11.50;99.90